createdAt,value
2023-01-17T00:00:23.655Z,97174.81
2023-01-17T00:02:57.618Z,97162.97
2023-01-17T00:05:40.559Z,97174.94
2023-01-17T00:08:29.648Z,97172.25
2023-01-17T00:11:00.741Z,97177.22
2023-01-17T00:13:31.497Z,97180.66
2023-01-17T00:16:03.433Z,97173.09
2023-01-17T00:18:35.580Z,97182.41
2023-01-17T00:21:18.726Z,97166.59
2023-01-17T00:24:04.414Z,97173.09
2023-01-17T00:26:35.447Z,97169.59
2023-01-17T00:29:03.455Z,97178.00
2023-01-17T00:31:31.189Z,97171.03
2023-01-17T00:33:58.851Z,97173.09
2023-01-17T00:36:26.672Z,97179.94
2023-01-17T00:38:57.003Z,97180.13
2023-01-17T00:41:24.587Z,97190.09
2023-01-17T00:44:07.480Z,97195.25
2023-01-17T00:46:50.403Z,97207.13
2023-01-17T00:49:33.248Z,97191.31
2023-01-17T00:52:16.961Z,97195.81
2023-01-17T00:55:02.834Z,97200.19
2023-01-17T00:57:46.017Z,97199.44
2023-01-17T01:00:30.098Z,97206.03
2023-01-17T01:03:13.094Z,97207.56
2023-01-17T01:05:57.905Z,97209.81
2023-01-17T01:08:42.661Z,97203.16
2023-01-17T01:11:29.547Z,97213.19
2023-01-17T01:14:14.335Z,97228.34
2023-01-17T01:16:57.487Z,97225.41
2023-01-17T01:19:41.207Z,97231.00
2023-01-17T01:22:28.118Z,97222.38
2023-01-17T01:25:10.939Z,97239.81
2023-01-17T01:27:56.494Z,97235.41
2023-01-17T01:30:42.097Z,97245.56
2023-01-17T01:33:19.965Z,97234.91
2023-01-17T01:35:53.868Z,97231.47
2023-01-17T01:38:27.125Z,97246.63
2023-01-17T01:40:58.886Z,97247.56
2023-01-17T01:43:51.904Z,97239.44
2023-01-17T01:46:29.909Z,97253.59
2023-01-17T01:49:05.425Z,97244.88
2023-01-17T01:51:52.004Z,97251.31
2023-01-17T01:54:25.296Z,97254.66
2023-01-17T01:56:56.951Z,97258.03
2023-01-17T01:59:30.915Z,97257.16
2023-01-17T02:02:01.554Z,97264.63
2023-01-17T02:04:32.309Z,97261.09
2023-01-17T02:07:11.764Z,97270.84
2023-01-17T02:09:42.237Z,97232.97
2023-01-17T02:12:13.866Z,97254.63
2023-01-17T02:14:46.922Z,97286.28
2023-01-17T02:17:30.111Z,97286.75
2023-01-17T02:20:39.764Z,97289.25
2023-01-17T02:23:51.811Z,97292.22
2023-01-17T02:26:40.249Z,97300.06
2023-01-17T02:29:35.601Z,97300.66
2023-01-17T02:32:14.458Z,97294.13
2023-01-17T02:34:54.095Z,97311.81
2023-01-17T02:37:33.926Z,97308.41
2023-01-17T02:40:11.653Z,97310.69
2023-01-17T02:42:49.649Z,97312.31
2023-01-17T02:45:22.292Z,97315.56
2023-01-17T02:47:55.577Z,97271.81
2023-01-17T02:50:30.142Z,97319.13
2023-01-17T02:53:18.976Z,97316.44
2023-01-17T02:56:07.936Z,97328.88
2023-01-17T02:59:10.005Z,97315.84
2023-01-17T03:02:05.247Z,97327.78
2023-01-17T03:04:48.239Z,97342.84
2023-01-17T03:07:22.459Z,97345.13
2023-01-17T03:10:05.219Z,97357.47
2023-01-17T03:12:38.664Z,97353.66
2023-01-17T03:15:13.657Z,97362.19
2023-01-17T03:17:47.765Z,97350.81
2023-01-17T03:20:22.634Z,97369.69
2023-01-17T03:22:53.272Z,97359.03
2023-01-17T03:25:37.153Z,97372.56
2023-01-17T03:28:09.309Z,97327.06
2023-01-17T03:30:39.918Z,97382.88
2023-01-17T03:33:10.861Z,97390.00
2023-01-17T03:35:47.726Z,97397.66
2023-01-17T03:38:19.547Z,97381.19
2023-01-17T03:40:49.970Z,97410.09
2023-01-17T03:43:25.038Z,97402.81
2023-01-17T03:45:55.667Z,97404.47
2023-01-17T03:48:26.317Z,97396.31
2023-01-17T03:51:00.165Z,97392.84
2023-01-17T03:53:32.772Z,97405.31
2023-01-17T03:56:03.453Z,97414.03
2023-01-17T03:58:35.603Z,97405.13
2023-01-17T04:01:06.183Z,97404.16
2023-01-17T04:03:37.591Z,97409.16
2023-01-17T04:06:11.333Z,97412.69
2023-01-17T04:08:47.394Z,97412.81
2023-01-17T04:11:17.939Z,97405.91
2023-01-17T04:13:55.287Z,97417.81
2023-01-17T04:16:34.860Z,97428.59
2023-01-17T04:19:07.982Z,97423.63
2023-01-17T04:21:41.053Z,97434.63
2023-01-17T04:24:11.649Z,97433.88
2023-01-17T04:26:42.632Z,97448.66
2023-01-17T04:29:13.038Z,97438.28
2023-01-17T04:31:44.637Z,97451.31
2023-01-17T04:34:18.704Z,97448.66
2023-01-17T04:36:53.136Z,97446.72
2023-01-17T04:39:23.702Z,97459.84
2023-01-17T04:41:54.263Z,97456.84
2023-01-17T04:44:24.777Z,97465.06
2023-01-17T04:46:55.347Z,97472.16
2023-01-17T04:49:27.306Z,97455.84
2023-01-17T04:52:00.557Z,97477.88
2023-01-17T04:54:31.035Z,97479.94
2023-01-17T04:57:01.531Z,97489.50
2023-01-17T04:59:36.633Z,97493.50
2023-01-17T05:02:07.342Z,97494.09
2023-01-17T05:04:37.829Z,97494.53
2023-01-17T05:07:18.465Z,97506.66
2023-01-17T05:09:53.325Z,97511.31
2023-01-17T05:12:24.747Z,97517.94
2023-01-17T05:14:55.838Z,97528.44
2023-01-17T05:17:29.647Z,97536.47
2023-01-17T05:20:09.173Z,97533.47
2023-01-17T05:22:43.189Z,97541.81
2023-01-17T05:25:17.986Z,97556.72
2023-01-17T05:27:48.423Z,97557.38
2023-01-17T05:30:21.949Z,97569.03
2023-01-17T05:32:57.831Z,97580.75
2023-01-17T05:35:30.344Z,97592.72
2023-01-17T05:38:03.815Z,97632.19
2023-01-17T05:40:36.013Z,97607.63
2023-01-17T05:43:06.708Z,97626.22
2023-01-17T05:45:37.647Z,97618.66
2023-01-17T05:48:10.028Z,97576.44
2023-01-17T05:50:41.191Z,97633.00
2023-01-17T05:53:16.545Z,97631.34
2023-01-17T05:55:47.843Z,97650.13
2023-01-17T05:58:21.059Z,97660.34
2023-01-17T06:00:52.448Z,97668.75
2023-01-17T06:03:23.645Z,97683.06
2023-01-17T06:05:54.498Z,97683.13
2023-01-17T06:08:27.617Z,97689.13
2023-01-17T06:11:00.148Z,97682.03
2023-01-17T06:13:30.735Z,97700.50
2023-01-17T06:16:04.587Z,97697.91
2023-01-17T06:18:36.665Z,97701.47
2023-01-17T06:21:07.219Z,97702.06
2023-01-17T06:23:47.036Z,97717.06
2023-01-17T06:26:17.499Z,97730.25
2023-01-17T06:28:52.678Z,97729.84
2023-01-17T06:31:29.464Z,97730.72
2023-01-17T06:33:59.974Z,97723.16
2023-01-17T06:36:37.952Z,97737.69
2023-01-17T06:39:14.984Z,97729.22
2023-01-17T06:41:45.867Z,97765.34
2023-01-17T06:44:16.331Z,97756.75
2023-01-17T06:46:50.769Z,97758.34
2023-01-17T06:49:28.012Z,97767.19
2023-01-17T06:51:58.481Z,97726.94
2023-01-17T06:54:37.946Z,97773.28
2023-01-17T06:57:11.008Z,97776.75
2023-01-17T06:59:41.436Z,97793.94
2023-01-17T07:02:13.599Z,97804.34
2023-01-17T07:04:45.635Z,97793.09
2023-01-17T07:07:16.898Z,97799.78
2023-01-17T07:09:50.249Z,97807.22
2023-01-17T07:12:20.692Z,97809.47
2023-01-17T07:14:51.214Z,97810.41
2023-01-17T07:17:29.361Z,97821.59
2023-01-17T07:20:02.606Z,97811.94
2023-01-17T07:22:33.108Z,97816.75
2023-01-17T07:25:06.603Z,97829.38
2023-01-17T07:27:45.290Z,97830.34
2023-01-17T07:30:18.708Z,97842.56
2023-01-17T07:32:56.362Z,97847.91
2023-01-17T07:35:27.943Z,97842.69
2023-01-17T07:37:58.739Z,97847.66
2023-01-17T07:40:33.507Z,97853.75
2023-01-17T07:43:13.706Z,97864.53
2023-01-17T07:45:46.420Z,97855.38
2023-01-17T07:48:19.400Z,97854.41
2023-01-17T07:50:57.332Z,97874.97
2023-01-17T07:53:30.297Z,97870.38
2023-01-17T07:56:10.375Z,97870.38
2023-01-17T07:58:42.047Z,97871.47
2023-01-17T08:01:16.288Z,97846.16
2023-01-17T08:03:50.177Z,97867.34
2023-01-17T08:06:23.757Z,97865.31
2023-01-17T08:08:57.087Z,97851.59
2023-01-17T08:11:33.137Z,97868.94
2023-01-17T08:14:11.894Z,97861.22
2023-01-17T08:16:43.964Z,97878.59
2023-01-17T08:19:22.361Z,97881.19
2023-01-17T08:21:54.809Z,97878.09
2023-01-17T08:24:25.471Z,97888.53
2023-01-17T08:26:58.547Z,97886.41
2023-01-17T08:29:29.859Z,97896.94
2023-01-17T08:32:03.311Z,97905.59
2023-01-17T08:34:41.436Z,97898.66
2023-01-17T08:37:12.852Z,97911.44
2023-01-17T08:39:46.191Z,97906.59
2023-01-17T08:42:19.635Z,97920.28
2023-01-17T08:45:12.310Z,97924.88
2023-01-17T08:47:43.940Z,97937.94
2023-01-17T08:50:15.174Z,97914.88
2023-01-17T08:52:47.204Z,97951.78
2023-01-17T08:55:19.874Z,97965.66
2023-01-17T08:57:55.337Z,97956.69
2023-01-17T09:00:28.557Z,97954.50
2023-01-17T09:02:59.719Z,97956.69
2023-01-17T09:05:36.776Z,97974.09
2023-01-17T09:08:08.051Z,97979.44
2023-01-17T09:10:55.024Z,97952.69
2023-01-17T09:13:28.326Z,97987.78
2023-01-17T09:16:02.521Z,97987.69
2023-01-17T09:18:34.579Z,97981.22
2023-01-17T09:21:13.213Z,97979.72
2023-01-17T09:23:44.627Z,97983.06
2023-01-17T09:26:21.628Z,97973.13
2023-01-17T09:28:55.523Z,97980.94
2023-01-17T09:31:28.609Z,97981.94
2023-01-17T09:34:00.575Z,97975.09
2023-01-17T09:36:38.872Z,97973.88
2023-01-17T09:39:17.649Z,97977.19
2023-01-17T09:41:54.819Z,97987.50
2023-01-17T09:44:31.930Z,97983.91
2023-01-17T09:47:10.344Z,97992.69
2023-01-17T09:49:45.016Z,97990.09
2023-01-17T09:52:17.758Z,98010.25
2023-01-17T09:54:50.469Z,98013.72
2023-01-17T09:57:39.597Z,98006.25
2023-01-17T10:00:33.337Z,98008.97
2023-01-17T10:03:23.432Z,98010.56
2023-01-17T10:06:24.902Z,97972.50
2023-01-17T10:09:12.448Z,98007.97
2023-01-17T10:11:58.765Z,98011.19
2023-01-17T10:15:05.805Z,98022.38
2023-01-17T10:17:49.329Z,98023.38
2023-01-17T10:20:47.718Z,98022.72
2023-01-17T10:23:58.897Z,98029.31
2023-01-17T10:26:30.335Z,98030.28
2023-01-17T10:29:07.670Z,98022.81
2023-01-17T10:31:47.323Z,98028.78
2023-01-17T10:34:28.419Z,97993.31
2023-01-17T10:37:07.313Z,98039.59
2023-01-17T10:39:39.571Z,98038.00
2023-01-17T10:42:19.865Z,98043.69
2023-01-17T10:45:00.794Z,98029.81
2023-01-17T10:47:33.951Z,98049.28
2023-01-17T10:50:11.737Z,98001.00
2023-01-17T10:52:55.669Z,98045.94
2023-01-17T10:55:39.111Z,98049.41
2023-01-17T10:58:13.707Z,98051.63
2023-01-17T11:00:46.923Z,98042.56
2023-01-17T11:03:20.872Z,98042.66
2023-01-17T11:06:21.548Z,98050.34
2023-01-17T11:08:58.574Z,98056.59
2023-01-17T11:11:34.280Z,98055.38
2023-01-17T11:14:15.409Z,98059.59
2023-01-17T11:16:46.590Z,98055.97
2023-01-17T11:19:26.770Z,98051.84
2023-01-17T11:22:01.794Z,98049.22
2023-01-17T11:24:39.176Z,98064.47
2023-01-17T11:27:25.587Z,98048.06
2023-01-17T11:30:10.650Z,98050.53
2023-01-17T11:32:42.809Z,98057.28
2023-01-17T11:35:25.680Z,98047.22
2023-01-17T11:38:08.116Z,98061.47
2023-01-17T11:40:45.804Z,98060.09
2023-01-17T11:43:31.472Z,98062.94
2023-01-17T11:46:20.567Z,98060.72
2023-01-17T11:48:56.177Z,98049.38
2023-01-17T11:51:32.692Z,98050.47
2023-01-17T11:54:22.031Z,98051.06
2023-01-17T11:57:00.810Z,98054.13
2023-01-17T11:59:35.194Z,98056.41
2023-01-17T12:02:34.126Z,98051.03
2023-01-17T12:05:35.146Z,98055.84
2023-01-17T12:08:20.859Z,98045.53
2023-01-17T12:11:06.257Z,98047.81
2023-01-17T12:14:02.903Z,98051.38
2023-01-17T12:16:59.805Z,98053.03
2023-01-17T12:19:45.701Z,98055.00
2023-01-17T12:22:33.859Z,98049.38
2023-01-17T12:25:26.624Z,98057.69
2023-01-17T12:28:30.673Z,98049.88
2023-01-17T12:31:20.982Z,98055.81
2023-01-17T12:33:56.426Z,98057.69
2023-01-17T12:36:49.678Z,98046.50
2023-01-17T12:39:26.111Z,98062.22
2023-01-17T12:42:03.879Z,98066.69
2023-01-17T12:44:54.309Z,98069.28
2023-01-17T12:47:28.131Z,98074.25
2023-01-17T12:50:10.453Z,98065.50
2023-01-17T12:52:56.187Z,98064.31
2023-01-17T12:55:37.756Z,98058.81
2023-01-17T12:58:16.006Z,98074.84
2023-01-17T13:01:15.839Z,98074.09
2023-01-17T13:04:19.032Z,98065.13
2023-01-17T13:07:03.558Z,98060.88
2023-01-17T13:09:40.580Z,98070.41
2023-01-17T13:12:16.365Z,98058.91
2023-01-17T13:14:49.083Z,98054.03
2023-01-17T13:17:35.645Z,98078.84
2023-01-17T13:20:22.714Z,98081.53
2023-01-17T13:22:57.258Z,98082.25
2023-01-17T13:25:57.118Z,98088.97
2023-01-17T13:28:39.266Z,98095.69
2023-01-17T13:31:24.034Z,98087.03
2023-01-17T13:34:35.123Z,98091.38
2023-01-17T13:37:30.312Z,98097.69
2023-01-17T13:40:31.765Z,98093.34
2023-01-17T13:43:04.893Z,98100.69
2023-01-17T13:45:37.737Z,98108.72
2023-01-17T13:48:33.845Z,98111.13
2023-01-17T13:51:05.476Z,98116.31
2023-01-17T13:54:04.568Z,98123.28
2023-01-17T13:56:37.723Z,98129.50
2023-01-17T13:59:30.802Z,98126.81
2023-01-17T14:02:01.883Z,98135.66
2023-01-17T14:05:02.838Z,98137.25
2023-01-17T14:07:36.683Z,98131.41
2023-01-17T14:10:34.765Z,98136.53
2023-01-17T14:13:07.772Z,98140.00
2023-01-17T14:15:52.558Z,98141.72
2023-01-17T14:18:43.778Z,98134.28
2023-01-17T14:21:22.760Z,98148.22
2023-01-17T14:24:08.222Z,98110.97
2023-01-17T14:26:58.997Z,98140.38
2023-01-17T14:30:00.473Z,98142.13
2023-01-17T14:32:34.485Z,98141.38
2023-01-17T14:35:09.290Z,98141.38
2023-01-17T14:37:57.710Z,98147.72
2023-01-17T14:40:30.950Z,98130.09
2023-01-17T14:43:10.295Z,98147.91
2023-01-17T14:45:41.598Z,98151.88
2023-01-17T14:48:21.908Z,98149.63
2023-01-17T14:50:54.272Z,98150.91
2023-01-17T14:53:28.463Z,98152.28
2023-01-17T14:56:00.131Z,98157.53
2023-01-17T14:58:36.424Z,98160.75
2023-01-17T15:01:13.795Z,98151.56
2023-01-17T15:03:49.106Z,98155.66
2023-01-17T15:06:40.170Z,98158.91
2023-01-17T15:09:13.831Z,98142.13
2023-01-17T15:11:44.295Z,98159.41
2023-01-17T15:14:24.235Z,98159.31
2023-01-17T15:17:12.829Z,98164.16
2023-01-17T15:19:47.751Z,98163.00
2023-01-17T15:22:20.526Z,98167.63
2023-01-17T15:24:52.509Z,98138.69
2023-01-17T15:27:25.079Z,98162.66
2023-01-17T15:30:02.335Z,98172.97
2023-01-17T15:32:35.137Z,98164.41
2023-01-17T15:35:08.305Z,98176.72
2023-01-17T15:37:41.850Z,98155.44
2023-01-17T15:40:20.904Z,98172.97
2023-01-17T15:42:56.572Z,98150.25
2023-01-17T15:45:32.427Z,98166.03
2023-01-17T15:48:32.762Z,98176.81
2023-01-17T15:51:03.343Z,98180.53
2023-01-17T15:53:36.450Z,98183.63
2023-01-17T15:56:26.431Z,98161.50
2023-01-17T15:58:57.026Z,98181.38
2023-01-17T16:01:31.740Z,98194.56
2023-01-17T16:04:05.532Z,98192.69
2023-01-17T16:06:45.701Z,98187.97
2023-01-17T16:09:24.917Z,98202.13
2023-01-17T16:11:56.017Z,98203.63
2023-01-17T16:14:43.960Z,98212.56
2023-01-17T16:17:23.565Z,98215.63
2023-01-17T16:19:54.185Z,98213.63
2023-01-17T16:22:29.256Z,98201.19
2023-01-17T16:25:00.753Z,98227.78
2023-01-17T16:27:31.166Z,98227.25
2023-01-17T16:30:01.674Z,98232.84
2023-01-17T16:32:34.846Z,98239.78
2023-01-17T16:35:05.903Z,98235.28
2023-01-17T16:37:36.277Z,98235.03
2023-01-17T16:40:10.027Z,98234.75
2023-01-17T16:42:41.907Z,98234.63
2023-01-17T16:45:21.180Z,98234.63
2023-01-17T16:47:56.444Z,98226.19
2023-01-17T16:50:28.323Z,98234.88
2023-01-17T16:52:59.107Z,98237.38
2023-01-17T16:55:29.657Z,98242.19
2023-01-17T16:58:00.746Z,98245.44
2023-01-17T17:00:31.173Z,98244.56
2023-01-17T17:03:04.224Z,98247.91
2023-01-17T17:05:35.362Z,98251.66
2023-01-17T17:08:06.126Z,98254.25
2023-01-17T17:10:36.555Z,98252.78
2023-01-17T17:13:07.977Z,98247.94
2023-01-17T17:15:43.963Z,98253.06
2023-01-17T17:18:20.247Z,98252.06
2023-01-17T17:20:50.827Z,98251.91
2023-01-17T17:23:21.812Z,98254.00
2023-01-17T17:26:00.893Z,98256.22
2023-01-17T17:28:31.419Z,98249.13
2023-01-17T17:31:15.243Z,98255.38
2023-01-17T17:33:48.330Z,98254.38
2023-01-17T17:36:18.880Z,98247.38
2023-01-17T17:38:55.329Z,98257.31
2023-01-17T17:41:28.993Z,98255.31
2023-01-17T17:43:59.458Z,98257.31
2023-01-17T17:46:33.948Z,98253.34
2023-01-17T17:49:08.012Z,98254.09
2023-01-17T17:51:40.440Z,98257.78
2023-01-17T17:54:13.311Z,98265.09
2023-01-17T17:56:46.581Z,98268.78
2023-01-17T17:59:21.162Z,98224.44
2023-01-17T18:01:51.843Z,98275.56
2023-01-17T18:04:26.620Z,98283.75
2023-01-17T18:07:01.656Z,98281.16
2023-01-17T18:09:32.243Z,98278.50
2023-01-17T18:12:02.948Z,98281.81
2023-01-17T18:14:36.336Z,98283.50
2023-01-17T18:17:10.296Z,98281.22
2023-01-17T18:19:46.129Z,98289.47
2023-01-17T18:22:16.506Z,98283.34
2023-01-17T18:24:46.975Z,98286.41
2023-01-17T18:27:17.339Z,98291.66
2023-01-17T18:29:49.377Z,98293.47
2023-01-17T18:32:20.438Z,98299.53
2023-01-17T18:34:55.518Z,98294.50
2023-01-17T18:37:28.179Z,98289.09
2023-01-17T18:39:58.634Z,98285.38
2023-01-17T18:42:31.376Z,98286.97
2023-01-17T18:45:02.038Z,98291.78
2023-01-17T18:47:35.833Z,98289.53
2023-01-17T18:50:10.470Z,98287.22
2023-01-17T18:52:41.472Z,98297.88
2023-01-17T18:55:12.142Z,98304.19
2023-01-17T18:57:42.549Z,98316.28
2023-01-17T19:00:18.803Z,98292.34
2023-01-17T19:02:58.298Z,98319.09
2023-01-17T19:05:33.899Z,98327.00
2023-01-17T19:08:04.354Z,98327.75
2023-01-17T19:10:34.980Z,98333.72
2023-01-17T19:13:05.485Z,98338.66
2023-01-17T19:15:37.814Z,98336.19
2023-01-17T19:18:15.080Z,98336.78
2023-01-17T19:20:48.171Z,98274.13
2023-01-17T19:23:18.769Z,98330.25
2023-01-17T19:25:56.136Z,98331.72
2023-01-17T19:28:29.076Z,98338.56
2023-01-17T19:31:07.471Z,98331.72
2023-01-17T19:33:40.583Z,98336.16
2023-01-17T19:36:17.130Z,98343.72
2023-01-17T19:39:02.903Z,98347.78
2023-01-17T19:41:35.612Z,98346.78
2023-01-17T19:44:08.448Z,98344.28
2023-01-17T19:46:39.826Z,98349.53
2023-01-17T19:49:16.450Z,98352.16
2023-01-17T19:51:50.310Z,98349.38
2023-01-17T19:54:20.915Z,98331.84
2023-01-17T19:56:51.605Z,98359.34
2023-01-17T19:59:22.683Z,98370.59
2023-01-17T20:01:53.449Z,98369.44
2023-01-17T20:04:24.011Z,98367.41
2023-01-17T20:06:57.324Z,98371.63
2023-01-17T20:09:27.732Z,98373.50
2023-01-17T20:11:58.220Z,98381.66
2023-01-17T20:14:28.859Z,98375.84
2023-01-17T20:16:59.331Z,98384.00
2023-01-17T20:19:30.093Z,98378.78
2023-01-17T20:22:03.316Z,98381.53
2023-01-17T20:24:33.932Z,98383.28
2023-01-17T20:27:17.784Z,98379.03
2023-01-17T20:29:52.505Z,98385.59
2023-01-17T20:32:25.324Z,98381.13
2023-01-17T20:34:57.212Z,98376.44
2023-01-17T20:37:32.465Z,98386.66
2023-01-17T20:40:03.137Z,98383.88
2023-01-17T20:42:35.932Z,98389.44
2023-01-17T20:45:09.440Z,98381.56
2023-01-17T20:47:47.223Z,98383.06
2023-01-17T20:50:18.479Z,98395.16
2023-01-17T20:52:51.654Z,98401.81
2023-01-17T20:55:24.346Z,98397.88
2023-01-17T20:57:55.396Z,98387.59
2023-01-17T21:00:26.613Z,98393.50
2023-01-17T21:02:57.142Z,98391.31
2023-01-17T21:05:27.862Z,98394.78
2023-01-17T21:08:04.180Z,98391.59
2023-01-17T21:10:38.568Z,98355.00
2023-01-17T21:13:13.032Z,98407.19
2023-01-17T21:15:47.309Z,98397.19
2023-01-17T21:18:19.659Z,98399.03
2023-01-17T21:20:51.080Z,98394.84
2023-01-17T21:23:29.302Z,98384.22
2023-01-17T21:26:00.533Z,98402.84
2023-01-17T21:28:34.212Z,98398.03
2023-01-17T21:31:19.801Z,98386.84
2023-01-17T21:33:51.236Z,98398.91
2023-01-17T21:36:23.241Z,98409.84
2023-01-17T21:38:58.234Z,98406.66
2023-01-17T21:41:30.173Z,98360.22
2023-01-17T21:44:08.058Z,98414.78
2023-01-17T21:46:39.495Z,98407.94
2023-01-17T21:49:12.222Z,98414.66
2023-01-17T21:51:58.704Z,98420.19
2023-01-17T21:54:45.807Z,98399.56
2023-01-17T21:57:30.474Z,98423.53
2023-01-17T22:00:05.129Z,98435.19
2023-01-17T22:02:42.726Z,98432.72
2023-01-17T22:05:15.024Z,98440.28
2023-01-17T22:08:06.099Z,98449.94
2023-01-17T22:10:45.763Z,98455.72
2023-01-17T22:13:17.043Z,98428.06
2023-01-17T22:15:48.334Z,98456.59
2023-01-17T22:18:18.772Z,98459.09
2023-01-17T22:20:53.255Z,98462.31
2023-01-17T22:23:25.277Z,98461.84
2023-01-17T22:26:06.921Z,98459.53
2023-01-17T22:28:37.566Z,98422.41
2023-01-17T22:31:13.492Z,98478.75
2023-01-17T22:33:45.633Z,98478.75
2023-01-17T22:36:17.933Z,98481.97
2023-01-17T22:38:50.953Z,98479.50
2023-01-17T22:41:25.845Z,98486.03
2023-01-17T22:43:58.728Z,98492.31
2023-01-17T22:46:31.063Z,98492.31
2023-01-17T22:49:02.176Z,98490.53
2023-01-17T22:51:33.138Z,98496.09
2023-01-17T22:54:04.035Z,98499.00
2023-01-17T22:56:40.019Z,98501.03
2023-01-17T22:59:12.147Z,98490.69
2023-01-17T23:01:43.259Z,98503.50
2023-01-17T23:04:17.286Z,98495.63
2023-01-17T23:06:47.678Z,98489.78
2023-01-17T23:09:18.880Z,98498.81
2023-01-17T23:11:54.641Z,98495.31
2023-01-17T23:14:27.269Z,98494.16
2023-01-17T23:17:12.022Z,98492.97
2023-01-17T23:19:46.671Z,98498.81
2023-01-17T23:22:19.445Z,98505.34
2023-01-17T23:24:52.722Z,98495.88
2023-01-17T23:27:40.679Z,98495.44
2023-01-17T23:30:15.334Z,98503.75
2023-01-17T23:32:48.374Z,98510.00
2023-01-17T23:35:20.414Z,98508.09
2023-01-17T23:38:03.514Z,98504.47
2023-01-17T23:40:34.978Z,98509.81
2023-01-17T23:43:21.103Z,98507.16
2023-01-17T23:45:54.103Z,98517.06
2023-01-17T23:48:29.144Z,98517.47
2023-01-17T23:51:02.336Z,98515.47
2023-01-17T23:53:32.771Z,98506.84
2023-01-17T23:56:10.022Z,98509.50
2023-01-17T23:58:43.216Z,98511.97
